Logo AVAMET
Benvolgut visitant, si us plau, ingressa Recuperar contrasenya
AVAMET paisatges

València Micalet

Dades diàries. Acumulats / Últims 30 dies disponibles

Data Temperatura (°C) Humitat rel. (%) Pressió rel. (hPa) Vent (km/h) Precipitació
Mínima Mitjana Màxima Amplitud
tèrmica
Mínima Mitjana Màxima Mínima Mitjana Màxima Predom. Mitjana Ràfega
màxima
Total
(mm)
Índex-n
Mínima Mitjana Màxima Mínima Mitjana Màxima n
0 a 1
P0 max
mm 5'
Dades mensuals acumulades fins l'últim dia disponible
10/2020 11,3 15,7 20,5 19,8 20,6 24,3 32,2 20,9 23 58 88 991 1.014 1.023   5,7 64,4 3,8
Dades anuals acumulades fins l'últim dia disponible
2020 4,9 16,7 26,1 20,0 9,3 23,8 33,1 28,2 22 69 95 991 1.018 1.035   5,2 75,6 329,8
Últims 30 dies disponibles
20-10-2020 17,4     19,6     21,3 3,9 76 80 88 1.011 1.016 1.020 ENE 3,5 25,7 0,0
19-10-2020 14,7     18,3     21,5 6,8 66 74 80 1.020 1.021 1.023 WNW 2,7 20,9 0,0
18-10-2020 13,0     17,3     21,7 8,7 49 67 80 1.020 1.021 1.023 WNW 3,7 19,3 0,0
17-10-2020 12,5     16,6     21,9 9,4 41 61 71 1.016 1.018 1.020 WNW 5,1 24,1 0,0
16-10-2020 11,3     15,9     20,6 9,3 30 49 67 1.016 1.018 1.019 W 5,3 29,0 0,0
15-10-2020 13,3     17,7     22,4 9,1 NW 6,9 33,8 0,0
14-10-2020 16,1     19,0     21,4 5,3 W 2,7 19,3 1,6
13-10-2020 15,7     20,9     28,9 13,2 W 5,1 27,4 0,0
12-10-2020 15,8     18,9     23,4 7,6 WNW 5,8 33,8 0,0
11-10-2020 17,6     19,9     22,3 4,7 NW 5,6 32,2 0,0
10-10-2020 20,5     21,8     23,8 3,3 ENE 3,2 25,7 0,0
09-10-2020 18,3     21,5     24,3 6,0 ENE 4,2 24,1 0,0
08-10-2020 18,2     21,8     24,9 6,7 SE 3,9 25,7 0,0
07-10-2020 19,4     23,7     29,3 9,9 W 4,2 20,9 0,0
06-10-2020 15,1     20,7     28,2 13,1 36 51 61 1.019 1.021 1.022 W 4,0 25,7 0,0
05-10-2020 15,2     19,7     24,6 9,4 32 53 68 1.012 1.016 1.021 WNW 6,8 29,0 0,0
04-10-2020 13,5     18,8     23,8 10,3 39 50 62 1.007 1.009 1.012 W 9,7 41,8 0,0
03-10-2020 13,3     18,1     23,6 10,3 34 46 59 1.001 1.005 1.011 W 10,5 37,0 0,0
02-10-2020 15,3     20,6     25,8 10,5 45 56 76 991 998 1.005 W 14,3 64,4 2,2
01-10-2020 17,2     24,6     32,2 15,0 23 52 84 1.005 1.009 1.014 W 7,6 33,8 0,0
30-09-2020 16,8     20,7     24,1 7,3 65 74 80 1.014 1.016 1.019 SSO 3,4 20,9 0,0
29-09-2020 16,3     20,4     24,4 8,1 56 64 71 1.017 1.019 1.020 WNW 3,4 19,3 0,0
28-09-2020 14,8     20,0     24,2 9,4 33 50 68 1.015 1.016 1.019 WNW 5,3 25,7 0,0
27-09-2020 19,1     21,7     23,7 4,6 25 46 58 1.008 1.012 1.015 SE 6,8 37,0 0,0
26-09-2020 17,1     21,6     27,4 10,3 30 39 50 1.011 1.016 1.020 WNW 6,6 33,8 0,0
25-09-2020 20,6     23,6     27,4 6,8 22 41 64 1.013 1.016 1.020 W 10,5 33,8 0,0
24-09-2020 22,6     25,6     30,2 7,6 43 58 77 1.011 1.013 1.015 W 8,5 41,8 0,0
23-09-2020 21,7     25,3     31,7 10,0 38 64 82 1.011 1.012 1.014 W 4,3 30,6 0,0
22-09-2020 20,1     23,9     28,3 8,2 46 71 80 1.011 1.014 1.017 WNW 5,3 32,2 0,0
21-09-2020 21,5     24,7     27,8 6,3 49 63 77 1.015 1.016 1.017 W 4,8 30,6 0,0
Últims 13 mesos disponibles
09/2020 14,8 20,3 23,3 24,0 23,7 27,9 31,7 16,9 39 64 77 1.012 1.018 1.024 W 4,9 41,8 14,2
08/2020 18,6 24,1 26,0 27,2 25,8 30,3 33,1 14,5 49 69 77 1.004 1.014 1.019 ENE 5,1 38,6 5,2
07/2020 20,4 23,7 26,1 26,6 26,8 29,5 33,0 12,6 52 72 77 1.012 1.016 1.021 ENE 5,2 35,4 8,6
06/2020 16,2 20,1 23,1 23,4 20,7 27,0 32,2 16,0 38 68 78 1.005 1.015 1.021 ENE 5,8 48,3 34,2
05/2020 13,9 17,9 21,0 21,4 20,3 25,1 32,4 18,5 48 67 79 1.006 1.017 1.028 ENE 5,5 48,3 24,6
04/2020 9,9 13,5 18,6 16,4 16,0 20,0 26,6 16,7 45 73 87 1.006 1.017 1.027 ENE 4,2 41,8 47,6
03/2020 6,7 11,6 16,8 14,5 12,3 17,9 24,9 18,2 48 71 88 1.007 1.018 1.028 ENE 7,1 75,6 57,2
02/2020 7,9 11,1 15,1 15,0 14,2 20,2 27,5 19,6 52 70 86 1.014 1.026 1.033 W 3,9 48,3 1,0
01/2020 4,9 8,3 15,1 11,6 9,3 16,0 22,3 17,4 55 73 91 1.017 1.025 1.033 W 5,0 74,0 133,4
12/2019 6,7 11,4 18,3 14,3 13,5 18,2 24,9 18,2 49 68 89 1.002 1.019 1.033 W 6,5 82,1 86,0
11/2019 6,7 13,0 21,6 16,2 15,9 20,2 29,0 22,3 42 55 76 999 1.011 1.019 W 8,7 57,9 4,0
10/2019 12,3 17,3 21,3 20,9 17,1 25,3 34,9 22,6 42 67 81 1.008 1.017 1.022 W 4,4 38,6 25,8
09/2019 16,4 21,1 24,3 24,3 21,3 27,7 34,5 18,1 43 71 82 1.010 1.018 1.025 ENE 5,9 67,6 124,8
Tots els anys disponibles
2019 3,6 15,5 27,6 18,9 11,9 23,0 41,8 38,2 35 65 91 995 1.017 1.034 W 6,0 82,1 359,4
2018 3,7 15,7 27,4 18,9 9,2 22,7 37,0 33,3 44 70 91 1.000 1.018 1.030 W 5,7 75,6 737,0
2017 2,0 15,5 26,6 18,9 9,6 22,9 36,7 34,7 5,5 69,2 324,0
Temperatura (°C)
Humitat relativa (%)
Velocitat del vent i ràfega màxima (km/h)
Direcció del vent (°)
Pressió (hPa)
Precipitació (mm)
Nota sobre les dades: s'avisa a l'usuari de la provisionalitat i no oficialitat d'aquestes dades
Logo AVAMET blanc
Web allotjada a Sollutia
Llicència de Creative CommonsLa web d'AVAMET i els seus continguts estan subjectes a una llicència de
Reconeixement - No Comercial - Compartir igual
Últimes estacions: Sueca - Mareny de Barraquetes (Inforatge), La Vilavella - Centre (Ajuntament Soci), Alfondeguilla (Soci), Santa Magdalena de Polpís (Soci),  Benafigos (Aj. Soci), Carlet - Ajuntament (Inforatge), Montroi (Inforatge), Bronchales (Limítrofe-Terol/Aj. Soci), Sueca - Muntanyeta dels Sants (Inforatge), Vilamarxant - Ajuntament (Aj. Soci/Inforatge) - - -